sensor_id;sensor_type;location;lat;lon;timestamp;pressure;altitude;pressure_sealevel;temperature;humidity
27864;BME280;15980;51.092;13.916;2023-08-06T00:06:54;97880.56;;;15.78;100.00
27864;BME280;15980;51.092;13.916;2023-08-06T00:16:54;97874.25;;;15.78;100.00
27864;BME280;15980;51.092;13.916;2023-08-06T00:26:54;97854.88;;;15.74;100.00
27864;BME280;15980;51.092;13.916;2023-08-06T00:36:55;97860.41;;;15.85;100.00
27864;BME280;15980;51.092;13.916;2023-08-06T00:46:55;97854.50;;;15.86;100.00
27864;BME280;15980;51.092;13.916;2023-08-06T00:56:56;97849.34;;;15.88;100.00
27864;BME280;15980;51.092;13.916;2023-08-06T01:17:24;97806.28;;;15.91;100.00
27864;BME280;15980;51.092;13.916;2023-08-06T01:37:41;97764.03;;;15.65;100.00
27864;BME280;15980;51.092;13.916;2023-08-06T01:47:42;97754.53;;;15.59;100.00
27864;BME280;15980;51.092;13.916;2023-08-06T01:57:42;97754.53;;;15.59;100.00
27864;BME280;15980;51.092;13.916;2023-08-06T02:07:43;97761.63;;;15.60;100.00
27864;BME280;15980;51.092;13.916;2023-08-06T02:17:43;97779.81;;;15.68;100.00
27864;BME280;15980;51.092;13.916;2023-08-06T02:27:43;97768.72;;;15.54;100.00
27864;BME280;15980;51.092;13.916;2023-08-06T02:37:43;97753.72;;;15.48;100.00
27864;BME280;15980;51.092;13.916;2023-08-06T02:47:44;97739.53;;;15.25;100.00
27864;BME280;15980;51.092;13.916;2023-08-06T02:57:44;97734.38;;;15.20;100.00
27864;BME280;15980;51.092;13.916;2023-08-06T03:07:44;97723.31;;;15.16;100.00
27864;BME280;15980;51.092;13.916;2023-08-06T03:17:45;97708.72;;;15.26;100.00
27864;BME280;15980;51.092;13.916;2023-08-06T03:27:45;97697.66;;;15.37;100.00
27864;BME280;15980;51.092;13.916;2023-08-06T03:37:45;97681.88;;;15.34;100.00
27864;BME280;15980;51.092;13.916;2023-08-06T03:47:46;97678.72;;;15.03;100.00
27864;BME280;15980;51.092;13.916;2023-08-06T03:57:46;97672.38;;;15.14;100.00
27864;BME280;15980;51.092;13.916;2023-08-06T04:07:46;97645.97;;;15.23;100.00
27864;BME280;15980;51.092;13.916;2023-08-06T04:17:46;97638.06;;;15.25;100.00
27864;BME280;15980;51.092;13.916;2023-08-06T04:27:47;97625.44;;;15.24;100.00
27864;BME280;15980;51.092;13.916;2023-08-06T04:37:48;97608.44;;;15.26;100.00
27864;BME280;15980;51.092;13.916;2023-08-06T04:47:48;97611.97;;;15.37;100.00
27864;BME280;15980;51.092;13.916;2023-08-06T04:57:48;97589.47;;;15.38;100.00
27864;BME280;15980;51.092;13.916;2023-08-06T05:07:49;97581.53;;;15.51;100.00
27864;BME280;15980;51.092;13.916;2023-08-06T05:17:49;97586.28;;;15.58;100.00
27864;BME280;15980;51.092;13.916;2023-08-06T05:27:50;97577.19;;;15.61;100.00
27864;BME280;15980;51.092;13.916;2023-08-06T05:37:50;97560.56;;;15.72;100.00
27864;BME280;15980;51.092;13.916;2023-08-06T05:47:50;97562.56;;;15.60;100.00
27864;BME280;15980;51.092;13.916;2023-08-06T05:57:51;97558.91;;;15.85;100.00
27864;BME280;15980;51.092;13.916;2023-08-06T06:07:51;97575.38;;;16.13;100.00
27864;BME280;15980;51.092;13.916;2023-08-06T06:17:51;97569.88;;;16.02;100.00
27864;BME280;15980;51.092;13.916;2023-08-06T06:27:52;97566.66;;;16.18;100.00
27864;BME280;15980;51.092;13.916;2023-08-06T06:37:52;97557.66;;;16.59;100.00
27864;BME280;15980;51.092;13.916;2023-08-06T06:47:52;97570.38;;;16.53;100.00
27864;BME280;15980;51.092;13.916;2023-08-06T06:57:52;97571.28;;;16.32;100.00
27864;BME280;15980;51.092;13.916;2023-08-06T07:07:53;97565.25;;;16.51;100.00
27864;BME280;15980;51.092;13.916;2023-08-06T07:17:53;97580.09;;;16.79;100.00
27864;BME280;15980;51.092;13.916;2023-08-06T07:27:53;97559.25;;;17.08;100.00
27864;BME280;15980;51.092;13.916;2023-08-06T07:37:54;97561.72;;;16.99;98.44
27864;BME280;15980;51.092;13.916;2023-08-06T07:47:54;97561.91;;;16.74;99.18
27864;BME280;15980;51.092;13.916;2023-08-06T07:57:55;97553.94;;;16.80;100.00
27864;BME280;15980;51.092;13.916;2023-08-06T08:07:55;97536.75;;;17.03;100.00
27864;BME280;15980;51.092;13.916;2023-08-06T08:17:55;97532.56;;;17.21;100.00
27864;BME280;15980;51.092;13.916;2023-08-06T08:27:56;97522.28;;;17.56;97.50
27864;BME280;15980;51.092;13.916;2023-08-06T08:37:56;97499.53;;;17.38;97.94
27864;BME280;15980;51.092;13.916;2023-08-06T08:47:56;97497.03;;;17.81;97.53
27864;BME280;15980;51.092;13.916;2023-08-06T08:57:57;97493.16;;;17.07;100.00
27864;BME280;15980;51.092;13.916;2023-08-06T09:08:02;97487.53;;;16.24;100.00
27864;BME280;15980;51.092;13.916;2023-08-06T09:18:09;97486.53;;;15.93;100.00
27864;BME280;15980;51.092;13.916;2023-08-06T09:28:10;97478.16;;;16.08;100.00
27864;BME280;15980;51.092;13.916;2023-08-06T09:38:10;97481.22;;;16.24;100.00
27864;BME280;15980;51.092;13.916;2023-08-06T09:48:11;97467.94;;;16.53;100.00
27864;BME280;15980;51.092;13.916;2023-08-06T09:58:11;97469.56;;;16.91;100.00
27864;BME280;15980;51.092;13.916;2023-08-06T10:08:11;97458.78;;;17.35;100.00
27864;BME280;15980;51.092;13.916;2023-08-06T10:18:12;97452.72;;;17.43;99.66
27864;BME280;15980;51.092;13.916;2023-08-06T10:28:13;97451.22;;;17.66;97.80
27864;BME280;15980;51.092;13.916;2023-08-06T10:38:17;97439.22;;;17.76;97.20
27864;BME280;15980;51.092;13.916;2023-08-06T10:48:37;97424.81;;;18.58;93.76
27864;BME280;15980;51.092;13.916;2023-08-06T10:58:38;97406.44;;;18.88;90.64
27864;BME280;15980;51.092;13.916;2023-08-06T11:08:48;97396.03;;;19.31;87.32
27864;BME280;15980;51.092;13.916;2023-08-06T11:18:48;97398.59;;;18.82;87.79
27864;BME280;15980;51.092;13.916;2023-08-06T11:28:49;97389.41;;;18.86;88.42
27864;BME280;15980;51.092;13.916;2023-08-06T11:39:00;97386.66;;;19.41;85.49
27864;BME280;15980;51.092;13.916;2023-08-06T11:49:01;97386.19;;;18.87;87.44
27864;BME280;15980;51.092;13.916;2023-08-06T11:59:01;97383.22;;;18.78;88.11
27864;BME280;15980;51.092;13.916;2023-08-06T12:09:02;97395.84;;;18.36;90.09
27864;BME280;15980;51.092;13.916;2023-08-06T12:19:02;97385.13;;;18.58;89.65
27864;BME280;15980;51.092;13.916;2023-08-06T12:29:02;97382.88;;;19.52;85.68
27864;BME280;15980;51.092;13.916;2023-08-06T12:39:03;97371.47;;;19.10;83.86
27864;BME280;15980;51.092;13.916;2023-08-06T12:49:03;97372.53;;;18.76;84.76
27864;BME280;15980;51.092;13.916;2023-08-06T12:59:03;97364.56;;;19.34;84.78
27864;BME280;15980;51.092;13.916;2023-08-06T13:09:03;97366.75;;;19.79;81.86
27864;BME280;15980;51.092;13.916;2023-08-06T13:19:05;97370.59;;;19.85;81.49
27864;BME280;15980;51.092;13.916;2023-08-06T13:29:05;97372.28;;;19.99;79.82
27864;BME280;15980;51.092;13.916;2023-08-06T13:39:05;97369.81;;;19.85;80.14
27864;BME280;15980;51.092;13.916;2023-08-06T13:49:06;97367.38;;;19.87;78.67
27864;BME280;15980;51.092;13.916;2023-08-06T13:59:06;97365.41;;;20.03;79.18
27864;BME280;15980;51.092;13.916;2023-08-06T14:09:07;97358.34;;;20.15;79.35
27864;BME280;15980;51.092;13.916;2023-08-06T14:19:07;97355.81;;;20.04;78.16
27864;BME280;15980;51.092;13.916;2023-08-06T14:29:07;97361.03;;;19.86;77.93
27864;BME280;15980;51.092;13.916;2023-08-06T14:39:08;97352.25;;;20.04;77.89
27864;BME280;15980;51.092;13.916;2023-08-06T14:49:08;97358.16;;;19.73;79.52
27864;BME280;15980;51.092;13.916;2023-08-06T14:59:08;97366.94;;;19.56;80.35
27864;BME280;15980;51.092;13.916;2023-08-06T15:09:08;97365.91;;;19.82;77.87
27864;BME280;15980;51.092;13.916;2023-08-06T15:19:09;97369.72;;;20.21;75.37
27864;BME280;15980;51.092;13.916;2023-08-06T15:29:09;97372.88;;;20.06;75.16
27864;BME280;15980;51.092;13.916;2023-08-06T15:39:09;97367.47;;;20.16;77.21
27864;BME280;15980;51.092;13.916;2023-08-06T15:49:10;97375.56;;;20.10;75.23
27864;BME280;15980;51.092;13.916;2023-08-06T15:59:30;97374.97;;;20.02;76.29
27864;BME280;15980;51.092;13.916;2023-08-06T16:09:30;97362.69;;;19.67;76.00
27864;BME280;15980;51.092;13.916;2023-08-06T16:19:30;97361.00;;;19.34;78.92
27864;BME280;15980;51.092;13.916;2023-08-06T16:29:31;97366.69;;;18.71;82.33
27864;BME280;15980;51.092;13.916;2023-08-06T16:39:31;97370.81;;;18.59;83.68
27864;BME280;15980;51.092;13.916;2023-08-06T16:49:31;97388.53;;;18.45;84.98
27864;BME280;15980;51.092;13.916;2023-08-06T16:59:32;97367.13;;;17.15;100.00
27864;BME280;15980;51.092;13.916;2023-08-06T17:09:32;97381.75;;;16.44;100.00
27864;BME280;15980;51.092;13.916;2023-08-06T17:19:32;97343.88;;;16.37;100.00
27864;BME280;15980;51.092;13.916;2023-08-06T17:29:32;97339.41;;;16.50;100.00
27864;BME280;15980;51.092;13.916;2023-08-06T17:39:33;97350.22;;;16.34;100.00
27864;BME280;15980;51.092;13.916;2023-08-06T17:49:33;97353.25;;;16.47;100.00
27864;BME280;15980;51.092;13.916;2023-08-06T17:59:33;97360.03;;;16.42;100.00
27864;BME280;15980;51.092;13.916;2023-08-06T18:09:34;97368.81;;;16.33;100.00
27864;BME280;15980;51.092;13.916;2023-08-06T18:19:34;97371.66;;;16.26;100.00
27864;BME280;15980;51.092;13.916;2023-08-06T18:29:34;97392.28;;;16.18;100.00
27864;BME280;15980;51.092;13.916;2023-08-06T18:39:34;97428.03;;;15.95;100.00
27864;BME280;15980;51.092;13.916;2023-08-06T18:49:35;97436.34;;;15.95;100.00
27864;BME280;15980;51.092;13.916;2023-08-06T18:59:35;97436.19;;;15.54;100.00
27864;BME280;15980;51.092;13.916;2023-08-06T19:09:35;97440.56;;;15.44;100.00
27864;BME280;15980;51.092;13.916;2023-08-06T19:19:36;97433.56;;;15.25;100.00
27864;BME280;15980;51.092;13.916;2023-08-06T19:29:36;97445.06;;;15.06;100.00
27864;BME280;15980;51.092;13.916;2023-08-06T19:39:36;97445.16;;;14.81;100.00
27864;BME280;15980;51.092;13.916;2023-08-06T19:49:37;97430.97;;;14.72;100.00
27864;BME280;15980;51.092;13.916;2023-08-06T19:59:37;97418.78;;;14.62;100.00
27864;BME280;15980;51.092;13.916;2023-08-06T20:09:37;97411.66;;;14.79;100.00
27864;BME280;15980;51.092;13.916;2023-08-06T20:19:37;97411.25;;;14.66;100.00
27864;BME280;15980;51.092;13.916;2023-08-06T20:29:38;97426.28;;;14.55;100.00
27864;BME280;15980;51.092;13.916;2023-08-06T20:39:38;97424.69;;;14.61;100.00
27864;BME280;15980;51.092;13.916;2023-08-06T20:49:38;97419.56;;;14.63;100.00
27864;BME280;15980;51.092;13.916;2023-08-06T20:59:38;97414.81;;;14.67;100.00
27864;BME280;15980;51.092;13.916;2023-08-06T21:09:39;97420.34;;;14.67;100.00
27864;BME280;15980;51.092;13.916;2023-08-06T21:19:39;97420.34;;;14.67;100.00
27864;BME280;15980;51.092;13.916;2023-08-06T21:29:39;97407.34;;;14.60;100.00
27864;BME280;15980;51.092;13.916;2023-08-06T21:39:40;97422.31;;;14.63;100.00
27864;BME280;15980;51.092;13.916;2023-08-06T21:49:40;97429.78;;;14.69;100.00
27864;BME280;15980;51.092;13.916;2023-08-06T21:59:40;97433.34;;;14.70;100.00
27864;BME280;15980;51.092;13.916;2023-08-06T22:09:40;97433.34;;;14.70;100.00
27864;BME280;15980;51.092;13.916;2023-08-06T22:19:41;97435.72;;;14.68;100.00
27864;BME280;15980;51.092;13.916;2023-08-06T22:29:41;97443.59;;;14.66;100.00
27864;BME280;15980;51.092;13.916;2023-08-06T22:39:41;97436.53;;;14.61;100.00
27864;BME280;15980;51.092;13.916;2023-08-06T22:49:42;97437.28;;;14.69;100.00
27864;BME280;15980;51.092;13.916;2023-08-06T22:59:42;97440.81;;;14.73;100.00
27864;BME280;15980;51.092;13.916;2023-08-06T23:09:42;97446.75;;;14.82;100.00
27864;BME280;15980;51.092;13.916;2023-08-06T23:19:42;97458.56;;;14.72;100.00
27864;BME280;15980;51.092;13.916;2023-08-06T23:29:43;97457.03;;;14.57;100.00
27864;BME280;15980;51.092;13.916;2023-08-06T23:39:43;97438.50;;;14.57;100.00
27864;BME280;15980;51.092;13.916;2023-08-06T23:49:44;97442.06;;;14.43;100.00
27864;BME280;15980;51.092;13.916;2023-08-06T23:59:44;97436.94;;;14.38;100.00
